Terminal Aerodrome Forecast
Issued by NWS

Current Version | Previous Version | Graphics & Text | Print | Product List | Glossary On
Versions: 1 2 3 4 5 6 7 8 9 10 11 12 13 14 15 16 17 18 19 20 21 22 23 24 25 26 27 28 29 30
843
FTUS41 KRLX 171501 AAA
TAFCKB
TAF AMD
KCKB 171501Z 1715/1812 19003KT P6SM FEW035
     FM171700 21005KT P6SM SCT040
     FM172100 22006KT 4SM TSRA BKN040CB
     FM180000 19004KT P6SM SCT040
     FM180500 20004KT 3SM SHRA VCTS BKN025CB=

USA.gov is the U.S. government's official web portal to all federal, state and local government web resources and services.